메인 페이지
METAR-TAF:

METAR-TAF

공항 :

비숍, 캘리포니아, 미국

위도: 37-22-16N, 경도: 118-21-29W, 고도: 1256m

현재 날씨관측

예보는 18 시간 26분 전, 14:56시(UTC)에 발표되었습니다.
6kt
온도 -13°C
습도 66%
기압 1019 hPa
시정: 16.1km
맑음

METAR: KBIH 201456Z AUTO 36006KT 10SM CLR M13/M18 A3008 RMK AO2 SLP216 T11281178 52011 $

시각: 01:22 (09:22 UTC)

예보

예보는 22 시간 2분 전, 11:20시(UTC)에 발표되었습니다.
예보 대상 시간: 20일 12시부터 21일 12시까지 (UTC)
북북서8kt
시정: 10km
고도 10000ft 상공 구름 보통
20일 2000시부터 (UTC)
9kt
시정: 10km
고도 10000ft 상공 구름 보통
고도 25000ft 상공 구름 많음
21일 0300시부터 (UTC)
7kt
시정: 10km
고도 7000ft 상공 구름 조금
고도 10000ft 상공 구름 많음

TAF: KBIH 201120Z 2012/2112 34008KT P6SM SCT100 FM202000 17009KT P6SM SCT100 BKN250 FM210300 17007KT P6SM FEW070 BKN100

4,000개 이상의 공항 관측 자료 및 예보 (METAR 및 TAF 보고).

지도상에서 검색 가능한 기상관측소가 노란 점과 빨간 점으로 표시되어 있습니다.

기상관측소 명을 보려면 표시 위로 마우스를 이동하세요.

날씨 관측과 예보를 보려면 클릭하세요.

지도 변경 : 확대하려면 엑스 표시가 있는 녹색 버튼, 축소하려면 빼기 표시가 있는 녹색 버튼, 다음 페이지의 지도를 보려면 녹색 화살표를 클릭하세요.


METAR-TAF: